DAL2749 KMSP-KAUS
Flight info
| Callsign | DAL2749 |
|---|---|
| Flight time | N/A |
| Altitude | 34000 |
| Route | ORSKY3 ONTIJ EMP CVE WINDU SEWZY6 |
| Aircraft | A320/M-SDE3FGHIRWY/LB1 |
Departure
| Time | 2026-05-04 01:48 |
|---|---|
| Airport | Minneapolis–Saint Paul International Airport / Wold–Chamberlain Field (KMSP) |
Arrival
| Time | N/A |
|---|---|
| Airport | Austin Bergstrom International Airport (KAUS) |
| Time | Latitude | Longitude | Altitude | Speed | Heading |
|---|---|---|---|---|---|
| 2026-05-04 00:16 | 44.87919 | -93.20696 | 856 ft | 0 kts | 45° |
| 2026-05-04 01:36 | 44.87915 | -93.20701 | 855 ft | 3 kts | 45° |
| 2026-05-04 01:37 | 44.87898 | -93.20725 | 855 ft | 3 kts | 45° |
| 2026-05-04 01:37 | 44.87883 | -93.20744 | 855 ft | 4 kts | 28° |
| 2026-05-04 01:37 | 44.87860 | -93.20754 | 855 ft | 4 kts | 358° |
| 2026-05-04 01:37 | 44.87835 | -93.20748 | 855 ft | 3 kts | 342° |
| 2026-05-04 01:38 | 44.87833 | -93.20747 | 855 ft | 0 kts | 341° |
| 2026-05-04 01:40 | 44.87840 | -93.20758 | 855 ft | 6 kts | 300° |
| 2026-05-04 01:40 | 44.87873 | -93.20829 | 855 ft | 10 kts | 303° |
| 2026-05-04 01:40 | 44.87911 | -93.20908 | 855 ft | 10 kts | 303° |
| 2026-05-04 01:41 | 44.87949 | -93.20999 | 855 ft | 12 kts | 300° |
| 2026-05-04 01:41 | 44.87996 | -93.21118 | 855 ft | 15 kts | 292° |
| 2026-05-04 01:41 | 44.88014 | -93.21260 | 855 ft | 15 kts | 275° |
| 2026-05-04 01:41 | 44.88038 | -93.21402 | 855 ft | 15 kts | 297° |
| 2026-05-04 01:42 | 44.88095 | -93.21528 | 855 ft | 15 kts | 302° |
| 2026-05-04 01:42 | 44.88152 | -93.21659 | 855 ft | 16 kts | 301° |
| 2026-05-04 01:42 | 44.88209 | -93.21795 | 855 ft | 16 kts | 300° |
| 2026-05-04 01:42 | 44.88263 | -93.21937 | 855 ft | 16 kts | 279° |
| 2026-05-04 01:43 | 44.88200 | -93.22036 | 855 ft | 14 kts | 221° |
| 2026-05-04 01:43 | 44.88128 | -93.22137 | 855 ft | 15 kts | 231° |
| 2026-05-04 01:43 | 44.88146 | -93.22251 | 855 ft | 13 kts | 302° |
| 2026-05-04 01:43 | 44.88192 | -93.22358 | 855 ft | 13 kts | 301° |
| 2026-05-04 01:44 | 44.88240 | -93.22469 | 855 ft | 13 kts | 302° |
| 2026-05-04 01:44 | 44.88274 | -93.22545 | 855 ft | 14 kts | 302° |
| 2026-05-04 01:44 | 44.88325 | -93.22660 | 855 ft | 14 kts | 302° |
| 2026-05-04 01:44 | 44.88376 | -93.22778 | 855 ft | 14 kts | 301° |
| 2026-05-04 01:45 | 44.88430 | -93.22902 | 855 ft | 15 kts | 300° |
| 2026-05-04 01:45 | 44.88462 | -93.23040 | 855 ft | 15 kts | 282° |
| 2026-05-04 01:45 | 44.88542 | -93.23313 | 855 ft | 16 kts | 301° |
| 2026-05-04 01:46 | 44.88599 | -93.23445 | 855 ft | 16 kts | 301° |
| 2026-05-04 01:46 | 44.88641 | -93.23590 | 855 ft | 16 kts | 298° |
| 2026-05-04 01:46 | 44.88699 | -93.23726 | 855 ft | 17 kts | 301° |
| 2026-05-04 01:46 | 44.88759 | -93.23869 | 855 ft | 16 kts | 300° |
| 2026-05-04 01:47 | 44.88788 | -93.24021 | 855 ft | 16 kts | 264° |
| 2026-05-04 01:47 | 44.88775 | -93.24183 | 855 ft | 16 kts | 256° |
| 2026-05-04 01:47 | 44.88705 | -93.24210 | 855 ft | 12 kts | 171° |
| 2026-05-04 01:47 | 44.88518 | -93.24173 | 855 ft | 60 kts | 173° |
| 2026-05-04 01:48 | 44.87845 | -93.24000 | 856 ft | 132 kts | 170° |
| 2026-05-04 01:48 | 44.86803 | -93.23739 | 1156 ft | 157 kts | 172° |
| 2026-05-04 01:48 | 44.85723 | -93.23469 | 1832 ft | 160 kts | 172° |
| 2026-05-04 01:48 | 44.84626 | -93.23171 | 2585 ft | 158 kts | 171° |
| 2026-05-04 01:49 | 44.83556 | -93.23243 | 3169 ft | 159 kts | 206° |
| 2026-05-04 01:49 | 44.82618 | -93.24176 | 3466 ft | 173 kts | 223° |
| 2026-05-04 01:49 | 44.81646 | -93.25327 | 3780 ft | 191 kts | 221° |
| 2026-05-04 01:49 | 44.80554 | -93.26514 | 4177 ft | 205 kts | 218° |
| 2026-05-04 01:50 | 44.79351 | -93.27754 | 4531 ft | 224 kts | 218° |
| 2026-05-04 01:50 | 44.78045 | -93.29106 | 5001 ft | 240 kts | 218° |
| 2026-05-04 01:50 | 44.76668 | -93.30554 | 5554 ft | 254 kts | 219° |
| 2026-05-04 01:50 | 44.75216 | -93.32089 | 6131 ft | 268 kts | 219° |
| 2026-05-04 01:51 | 44.73703 | -93.33691 | 6841 ft | 275 kts | 219° |
| 2026-05-04 01:51 | 44.72158 | -93.35324 | 7646 ft | 279 kts | 218° |
| 2026-05-04 01:51 | 44.70594 | -93.36962 | 8430 ft | 283 kts | 218° |
| 2026-05-04 01:51 | 44.69001 | -93.38622 | 9206 ft | 286 kts | 218° |
| 2026-05-04 01:52 | 44.67394 | -93.40310 | 9961 ft | 290 kts | 219° |
| 2026-05-04 01:52 | 44.65765 | -93.42021 | 10688 ft | 295 kts | 219° |
| 2026-05-04 01:52 | 44.64095 | -93.43777 | 11210 ft | 307 kts | 219° |
| 2026-05-04 01:52 | 44.62381 | -93.45579 | 11636 ft | 321 kts | 219° |
| 2026-05-04 01:53 | 44.60481 | -93.47492 | 12066 ft | 337 kts | 215° |
| 2026-05-04 01:53 | 44.58438 | -93.49240 | 12489 ft | 350 kts | 212° |
| 2026-05-04 01:53 | 44.56307 | -93.50945 | 13111 ft | 355 kts | 211° |
| 2026-05-04 01:53 | 44.54142 | -93.52645 | 13769 ft | 359 kts | 211° |
| 2026-05-04 01:54 | 44.51959 | -93.54375 | 14405 ft | 362 kts | 212° |
| 2026-05-04 01:54 | 44.49795 | -93.56127 | 15034 ft | 365 kts | 212° |
| 2026-05-04 01:54 | 44.47592 | -93.57927 | 15645 ft | 369 kts | 212° |
| 2026-05-04 01:54 | 44.45368 | -93.59738 | 16236 ft | 372 kts | 212° |
| 2026-05-04 01:55 | 44.43115 | -93.61565 | 16815 ft | 375 kts | 212° |
| 2026-05-04 01:55 | 44.40842 | -93.63402 | 17370 ft | 379 kts | 212° |
| 2026-05-04 01:55 | 44.38546 | -93.65256 | 17918 ft | 382 kts | 212° |
| 2026-05-04 01:55 | 44.36231 | -93.67123 | 18457 ft | 385 kts | 212° |
| 2026-05-04 01:56 | 44.33905 | -93.68996 | 18982 ft | 388 kts | 212° |
| 2026-05-04 01:56 | 44.31548 | -93.70888 | 19502 ft | 391 kts | 212° |
| 2026-05-04 01:56 | 44.29185 | -93.72791 | 20000 ft | 393 kts | 212° |
| 2026-05-04 01:56 | 44.26808 | -93.74702 | 20487 ft | 396 kts | 212° |
| 2026-05-04 01:57 | 44.24415 | -93.76628 | 20967 ft | 398 kts | 212° |
| 2026-05-04 01:57 | 44.22011 | -93.78557 | 21438 ft | 400 kts | 212° |
| 2026-05-04 01:57 | 44.19586 | -93.80498 | 21887 ft | 403 kts | 211° |
| 2026-05-04 01:57 | 44.17150 | -93.82444 | 22330 ft | 405 kts | 211° |
| 2026-05-04 01:58 | 44.14697 | -93.84410 | 22772 ft | 407 kts | 212° |
| 2026-05-04 01:58 | 44.12234 | -93.86385 | 23188 ft | 409 kts | 212° |
| 2026-05-04 01:58 | 44.09761 | -93.88363 | 23599 ft | 411 kts | 211° |
| 2026-05-04 01:58 | 44.07270 | -93.90343 | 23994 ft | 414 kts | 211° |
| 2026-05-04 01:59 | 44.04764 | -93.92334 | 24375 ft | 416 kts | 211° |
| 2026-05-04 01:59 | 44.02248 | -93.94342 | 24750 ft | 418 kts | 211° |
| 2026-05-04 01:59 | 43.99719 | -93.96362 | 25117 ft | 420 kts | 211° |
| 2026-05-04 01:59 | 43.97180 | -93.98383 | 25468 ft | 422 kts | 211° |
| 2026-05-04 02:00 | 43.94622 | -94.00415 | 25813 ft | 424 kts | 211° |
| 2026-05-04 02:00 | 43.92051 | -94.02453 | 26162 ft | 426 kts | 211° |
| 2026-05-04 02:00 | 43.89470 | -94.04495 | 26498 ft | 428 kts | 211° |
| 2026-05-04 02:00 | 43.86871 | -94.06551 | 26822 ft | 430 kts | 211° |
| 2026-05-04 02:01 | 43.84260 | -94.08612 | 27139 ft | 432 kts | 211° |
| 2026-05-04 02:01 | 43.81676 | -94.10650 | 27447 ft | 434 kts | 211° |
| 2026-05-04 02:01 | 43.79049 | -94.12726 | 27756 ft | 436 kts | 211° |
| 2026-05-04 02:01 | 43.76406 | -94.14809 | 28043 ft | 438 kts | 211° |
| 2026-05-04 02:02 | 43.73760 | -94.16898 | 28318 ft | 440 kts | 211° |
| 2026-05-04 02:02 | 43.71091 | -94.19006 | 28604 ft | 442 kts | 211° |
| 2026-05-04 02:02 | 43.68416 | -94.21105 | 28876 ft | 443 kts | 211° |
| 2026-05-04 02:02 | 43.65719 | -94.23214 | 29150 ft | 445 kts | 211° |
| 2026-05-04 02:03 | 43.63028 | -94.25319 | 29507 ft | 445 kts | 211° |
| 2026-05-04 02:03 | 43.60331 | -94.27427 | 29855 ft | 444 kts | 211° |
| 2026-05-04 02:03 | 43.57646 | -94.29531 | 30202 ft | 444 kts | 211° |
| 2026-05-04 02:03 | 43.54963 | -94.31640 | 30504 ft | 444 kts | 211° |
| 2026-05-04 02:04 | 43.52279 | -94.33743 | 30806 ft | 444 kts | 212° |
| 2026-05-04 02:04 | 43.49578 | -94.35851 | 31084 ft | 445 kts | 212° |
| 2026-05-04 02:04 | 43.46882 | -94.37948 | 31382 ft | 445 kts | 212° |
| 2026-05-04 02:04 | 43.44184 | -94.40046 | 31672 ft | 446 kts | 212° |
| 2026-05-04 02:05 | 43.41488 | -94.42138 | 31954 ft | 446 kts | 212° |
| 2026-05-04 02:05 | 43.38778 | -94.44240 | 32241 ft | 446 kts | 212° |
| 2026-05-04 02:05 | 43.36075 | -94.46343 | 32512 ft | 446 kts | 212° |
| 2026-05-04 02:05 | 43.33375 | -94.48439 | 32793 ft | 446 kts | 212° |
| 2026-05-04 02:06 | 43.30651 | -94.50502 | 33057 ft | 447 kts | 209° |
| 2026-05-04 02:06 | 43.27744 | -94.52053 | 33296 ft | 451 kts | 199° |
| 2026-05-04 02:06 | 43.24715 | -94.53201 | 33576 ft | 451 kts | 197° |
| 2026-05-04 02:06 | 43.21670 | -94.54223 | 33820 ft | 452 kts | 196° |
| 2026-05-04 02:07 | 43.18608 | -94.55206 | 34068 ft | 452 kts | 196° |
| 2026-05-04 02:07 | 43.15553 | -94.56211 | 34222 ft | 450 kts | 197° |
| 2026-05-04 02:07 | 43.09537 | -94.58343 | 34213 ft | 449 kts | 198° |
| 2026-05-04 02:08 | 43.03487 | -94.60473 | 34211 ft | 449 kts | 197° |
| 2026-05-04 02:08 | 42.97439 | -94.62577 | 34211 ft | 448 kts | 197° |
| 2026-05-04 02:09 | 42.91401 | -94.64678 | 34213 ft | 448 kts | 197° |
| 2026-05-04 02:09 | 42.85367 | -94.66764 | 34255 ft | 447 kts | 197° |
| 2026-05-04 02:10 | 42.79331 | -94.68851 | 34251 ft | 447 kts | 197° |
| 2026-05-04 02:10 | 42.73304 | -94.70940 | 34258 ft | 446 kts | 197° |
| 2026-05-04 02:11 | 42.67286 | -94.73007 | 34259 ft | 446 kts | 197° |
| 2026-05-04 02:11 | 42.61267 | -94.75071 | 34254 ft | 445 kts | 197° |
| 2026-05-04 02:12 | 42.55304 | -94.77124 | 34250 ft | 445 kts | 197° |
| 2026-05-04 02:12 | 42.49299 | -94.79173 | 34245 ft | 444 kts | 197° |
| 2026-05-04 02:13 | 42.43310 | -94.81215 | 34262 ft | 443 kts | 197° |
| 2026-05-04 02:13 | 42.37326 | -94.83258 | 34226 ft | 443 kts | 197° |
| 2026-05-04 02:14 | 42.31338 | -94.85295 | 34193 ft | 443 kts | 197° |
| 2026-05-04 02:14 | 42.25357 | -94.87323 | 34189 ft | 443 kts | 197° |
| 2026-05-04 02:15 | 42.19379 | -94.89349 | 34180 ft | 443 kts | 197° |
| 2026-05-04 02:15 | 42.13391 | -94.91370 | 34179 ft | 443 kts | 197° |
| 2026-05-04 02:16 | 42.07407 | -94.93392 | 34198 ft | 443 kts | 197° |
| 2026-05-04 02:16 | 42.01421 | -94.95405 | 34210 ft | 443 kts | 197° |
| 2026-05-04 02:17 | 41.95446 | -94.97414 | 34238 ft | 443 kts | 198° |
| 2026-05-04 02:17 | 41.89520 | -94.99402 | 34273 ft | 440 kts | 198° |
| 2026-05-04 02:18 | 41.83601 | -95.01385 | 34278 ft | 437 kts | 198° |
| 2026-05-04 02:18 | 41.77717 | -95.03356 | 34264 ft | 434 kts | 199° |
| 2026-05-04 02:19 | 41.71875 | -95.05303 | 34223 ft | 431 kts | 198° |
| 2026-05-04 02:19 | 41.66061 | -95.07240 | 34182 ft | 430 kts | 199° |
| 2026-05-04 02:20 | 41.60256 | -95.09173 | 34185 ft | 430 kts | 199° |
| 2026-05-04 02:20 | 41.54440 | -95.11106 | 34177 ft | 431 kts | 199° |
| 2026-05-04 02:21 | 41.48599 | -95.13040 | 34179 ft | 433 kts | 199° |
| 2026-05-04 02:21 | 41.42764 | -95.14970 | 34172 ft | 435 kts | 199° |
| 2026-05-04 02:22 | 41.36873 | -95.16916 | 34188 ft | 436 kts | 199° |
| 2026-05-04 02:22 | 41.30967 | -95.18858 | 34247 ft | 436 kts | 199° |
| 2026-05-04 02:23 | 41.25076 | -95.20795 | 34266 ft | 436 kts | 199° |
| 2026-05-04 02:23 | 41.19191 | -95.22730 | 34263 ft | 434 kts | 199° |
| 2026-05-04 02:24 | 41.13376 | -95.24637 | 34261 ft | 433 kts | 199° |
| 2026-05-04 02:24 | 41.07530 | -95.26550 | 34221 ft | 432 kts | 199° |
| 2026-05-04 02:25 | 41.01701 | -95.28452 | 34180 ft | 431 kts | 199° |
| 2026-05-04 02:25 | 40.95869 | -95.30353 | 34176 ft | 431 kts | 200° |
| 2026-05-04 02:26 | 40.90040 | -95.32251 | 34180 ft | 432 kts | 200° |
| 2026-05-04 02:26 | 40.84200 | -95.34147 | 34213 ft | 431 kts | 200° |
| 2026-05-04 02:27 | 40.78377 | -95.36031 | 34263 ft | 431 kts | 200° |
| 2026-05-04 02:27 | 40.72560 | -95.37917 | 34255 ft | 431 kts | 200° |
| 2026-05-04 02:28 | 40.66775 | -95.39786 | 34255 ft | 430 kts | 200° |
| 2026-05-04 02:28 | 40.60965 | -95.41655 | 34260 ft | 429 kts | 200° |
| 2026-05-04 02:29 | 40.55170 | -95.43522 | 34225 ft | 428 kts | 200° |
| 2026-05-04 02:29 | 40.49371 | -95.45386 | 34184 ft | 428 kts | 200° |
| 2026-05-04 02:30 | 40.43577 | -95.47244 | 34171 ft | 428 kts | 201° |
| 2026-05-04 02:30 | 40.38766 | -95.48785 | 34174 ft | 429 kts | 201° |
| 2026-05-04 02:31 | 40.32965 | -95.50638 | 34185 ft | 429 kts | 201° |
| 2026-05-04 02:31 | 40.27177 | -95.52481 | 34233 ft | 428 kts | 201° |
| 2026-05-04 02:32 | 40.21384 | -95.54330 | 34241 ft | 428 kts | 201° |
| 2026-05-04 02:32 | 40.15640 | -95.56156 | 34253 ft | 428 kts | 201° |
| 2026-05-04 02:33 | 40.09856 | -95.57988 | 34265 ft | 428 kts | 201° |
| 2026-05-04 02:33 | 40.04080 | -95.59820 | 34268 ft | 427 kts | 201° |
| 2026-05-04 02:34 | 39.98306 | -95.61650 | 34256 ft | 426 kts | 201° |
| 2026-05-04 02:34 | 39.92551 | -95.63463 | 34268 ft | 425 kts | 201° |
| 2026-05-04 02:35 | 39.86810 | -95.65275 | 34243 ft | 424 kts | 201° |
| 2026-05-04 02:35 | 39.81083 | -95.67078 | 34201 ft | 423 kts | 201° |
| 2026-05-04 02:36 | 39.75354 | -95.68876 | 34180 ft | 423 kts | 201° |
| 2026-05-04 02:36 | 39.69678 | -95.70657 | 34174 ft | 423 kts | 201° |
| 2026-05-04 02:37 | 39.63946 | -95.72451 | 34203 ft | 423 kts | 201° |
| 2026-05-04 02:37 | 39.58229 | -95.74236 | 34261 ft | 422 kts | 202° |
| 2026-05-04 02:38 | 39.52527 | -95.76015 | 34267 ft | 421 kts | 201° |
| 2026-05-04 02:38 | 39.46835 | -95.77789 | 34267 ft | 419 kts | 202° |
| 2026-05-04 02:39 | 39.41178 | -95.79546 | 34262 ft | 417 kts | 202° |
| 2026-05-04 02:39 | 39.35549 | -95.81293 | 34259 ft | 415 kts | 202° |
| 2026-05-04 02:40 | 39.29990 | -95.83016 | 34236 ft | 413 kts | 202° |
| 2026-05-04 02:40 | 39.24419 | -95.84738 | 34236 ft | 410 kts | 202° |
| 2026-05-04 02:41 | 39.18880 | -95.86450 | 34258 ft | 407 kts | 202° |
| 2026-05-04 02:41 | 39.13378 | -95.88148 | 34245 ft | 406 kts | 202° |
| 2026-05-04 02:42 | 39.07906 | -95.89830 | 34252 ft | 403 kts | 202° |
| 2026-05-04 02:42 | 39.02462 | -95.91508 | 34243 ft | 401 kts | 202° |
| 2026-05-04 02:43 | 38.97054 | -95.93166 | 34223 ft | 399 kts | 202° |
| 2026-05-04 02:43 | 38.91673 | -95.94815 | 34239 ft | 396 kts | 202° |
| 2026-05-04 02:44 | 38.86357 | -95.96441 | 34229 ft | 394 kts | 203° |
| 2026-05-04 02:44 | 38.81039 | -95.98066 | 34203 ft | 392 kts | 203° |
| 2026-05-04 02:45 | 38.75746 | -95.99679 | 34237 ft | 389 kts | 203° |
| 2026-05-04 02:45 | 38.70495 | -96.01278 | 34221 ft | 387 kts | 203° |
| 2026-05-04 02:46 | 38.65265 | -96.02871 | 34180 ft | 386 kts | 203° |
| 2026-05-04 02:46 | 38.60036 | -96.04462 | 34164 ft | 386 kts | 203° |
| 2026-05-04 02:47 | 38.54812 | -96.06041 | 34167 ft | 386 kts | 203° |
| 2026-05-04 02:47 | 38.49589 | -96.07623 | 34221 ft | 385 kts | 203° |
| 2026-05-04 02:48 | 38.44392 | -96.09193 | 34245 ft | 383 kts | 204° |
| 2026-05-04 02:48 | 38.39238 | -96.10747 | 34246 ft | 381 kts | 204° |
| 2026-05-04 02:49 | 38.34089 | -96.12301 | 34241 ft | 379 kts | 204° |
| 2026-05-04 02:49 | 38.28955 | -96.13800 | 34206 ft | 381 kts | 200° |
| 2026-05-04 02:50 | 38.23656 | -96.14686 | 34164 ft | 385 kts | 197° |
| 2026-05-04 02:50 | 38.18328 | -96.15425 | 34157 ft | 385 kts | 198° |
| 2026-05-04 02:51 | 38.13013 | -96.16228 | 34160 ft | 384 kts | 198° |
| 2026-05-04 02:51 | 38.07708 | -96.17047 | 34201 ft | 384 kts | 198° |
| 2026-05-04 02:52 | 38.02413 | -96.17844 | 34246 ft | 383 kts | 198° |
| 2026-05-04 02:52 | 37.97111 | -96.18641 | 34255 ft | 383 kts | 198° |
| 2026-05-04 02:53 | 37.91813 | -96.19440 | 34250 ft | 383 kts | 198° |
| 2026-05-04 02:53 | 37.86518 | -96.20237 | 34224 ft | 383 kts | 198° |
| 2026-05-04 02:54 | 37.81254 | -96.21026 | 34201 ft | 383 kts | 198° |
| 2026-05-04 02:54 | 37.75949 | -96.21821 | 34184 ft | 383 kts | 198° |
| 2026-05-04 02:55 | 37.67996 | -96.23013 | 34171 ft | 383 kts | 198° |
| 2026-05-04 02:56 | 37.62706 | -96.23800 | 34210 ft | 382 kts | 198° |
| 2026-05-04 02:56 | 37.57421 | -96.24592 | 34184 ft | 383 kts | 198° |
| 2026-05-04 02:57 | 37.52123 | -96.25381 | 34171 ft | 383 kts | 197° |
| 2026-05-04 02:57 | 37.46817 | -96.26169 | 34170 ft | 384 kts | 197° |
| 2026-05-04 02:58 | 37.41524 | -96.26954 | 34215 ft | 383 kts | 197° |
| 2026-05-04 02:58 | 37.36259 | -96.27735 | 34194 ft | 383 kts | 197° |
| 2026-05-04 02:59 | 37.30955 | -96.28519 | 34224 ft | 383 kts | 197° |
| 2026-05-04 02:59 | 37.25679 | -96.29300 | 34237 ft | 382 kts | 197° |
| 2026-05-04 03:00 | 37.20402 | -96.30079 | 34238 ft | 381 kts | 197° |
| 2026-05-04 03:00 | 37.15131 | -96.30858 | 34197 ft | 381 kts | 197° |
| 2026-05-04 03:01 | 37.09867 | -96.31634 | 34210 ft | 380 kts | 197° |
| 2026-05-04 03:01 | 37.04619 | -96.32403 | 34192 ft | 380 kts | 196° |
| 2026-05-04 03:02 | 36.99374 | -96.33174 | 34162 ft | 380 kts | 196° |
| 2026-05-04 03:02 | 36.94127 | -96.33944 | 34185 ft | 379 kts | 196° |
| 2026-05-04 03:03 | 36.88890 | -96.34709 | 34175 ft | 379 kts | 196° |